createdAt,value
2022-09-29T00:02:33.484Z,97831.06
2022-09-29T00:05:20.672Z,97832.81
2022-09-29T00:08:07.890Z,97835.53
2022-09-29T00:10:55.313Z,97840.81
2022-09-29T00:13:42.843Z,97824.91
2022-09-29T00:16:31.359Z,97829.25
2022-09-29T00:19:19.391Z,97821.88
2022-09-29T00:22:06.826Z,97824.44
2022-09-29T00:24:54.258Z,97826.03
2022-09-29T00:27:41.344Z,97825.22
2022-09-29T00:30:29.094Z,97831.28
2022-09-29T00:33:17.712Z,97834.69
2022-09-29T00:36:08.730Z,97821.03
2022-09-29T00:38:55.675Z,97822.00
2022-09-29T00:41:43.736Z,97826.31
2022-09-29T00:45:20.519Z,97828.88
2022-09-29T00:48:14.569Z,97835.06
2022-09-29T00:51:03.883Z,97826.59
2022-09-29T00:53:51.371Z,97832.50
2022-09-29T00:56:41.675Z,97833.63
2022-09-29T00:59:41.486Z,97825.59
2022-09-29T01:02:30.683Z,97826.03
2022-09-29T01:05:23.523Z,97829.03
2022-09-29T01:08:17.472Z,97824.22
2022-09-29T01:11:06.464Z,97825.97
2022-09-29T01:13:55.853Z,97825.97
2022-09-29T01:16:43.417Z,97831.91
2022-09-29T01:19:42.200Z,97829.50
2022-09-29T01:23:01.613Z,97827.88
2022-09-29T01:26:28.175Z,97821.13
2022-09-29T01:29:52.913Z,97833.16
2022-09-29T01:33:22.607Z,97828.31
2022-09-29T01:36:22.713Z,97828.44
2022-09-29T01:39:21.073Z,97825.88
2022-09-29T01:42:14.703Z,97831.84
2022-09-29T01:45:09.936Z,97828.44
2022-09-29T01:48:01.714Z,97824.16
2022-09-29T01:50:54.812Z,97819.03
2022-09-29T01:53:47.736Z,97824.16
2022-09-29T01:56:39.388Z,97817.41
2022-09-29T01:59:34.513Z,97825.25
2022-09-29T02:02:28.715Z,97836.28
2022-09-29T02:05:22.514Z,97827.13
2022-09-29T02:08:16.270Z,97826.34
2022-09-29T02:11:07.179Z,97829.22
2022-09-29T02:14:00.662Z,97832.56
2022-09-29T02:16:53.307Z,97836.06
2022-09-29T02:19:44.251Z,97835.28
2022-09-29T02:22:31.654Z,97835.44
2022-09-29T02:25:21.570Z,97842.28
2022-09-29T02:28:09.765Z,97845.78
2022-09-29T02:30:56.947Z,97844.84
2022-09-29T02:33:44.227Z,97847.41
2022-09-29T02:36:40.995Z,97847.56
2022-09-29T02:39:43.297Z,97842.59
2022-09-29T02:42:40.370Z,97844.47
2022-09-29T02:45:38.976Z,97851.50
2022-09-29T02:49:07.656Z,97851.66
2022-09-29T02:51:59.940Z,97845.72
2022-09-29T02:54:59.418Z,97844.28
2022-09-29T02:57:54.253Z,97846.84
2022-09-29T03:00:41.867Z,97846.97
2022-09-29T03:03:29.173Z,97852.91
2022-09-29T03:06:17.936Z,97846.97
2022-09-29T03:09:05.344Z,97846.16
2022-09-29T03:11:52.732Z,97842.13
2022-09-29T03:14:41.156Z,97845.00
2022-09-29T03:17:28.273Z,97845.94
2022-09-29T03:20:15.719Z,97841.75
2022-09-29T03:23:03.143Z,97844.47
2022-09-29T03:25:50.294Z,97851.34
2022-09-29T03:28:38.067Z,97846.25
2022-09-29T03:31:26.932Z,97850.53
2022-09-29T03:34:14.216Z,97850.53
2022-09-29T03:37:01.435Z,97840.44
2022-09-29T03:39:48.658Z,97840.28
2022-09-29T03:42:36.089Z,97846.25
2022-09-29T03:45:23.174Z,97846.25
2022-09-29T03:48:11.810Z,97843.00
2022-09-29T03:50:59.379Z,97843.00
2022-09-29T03:53:46.560Z,97840.59
2022-09-29T03:56:33.619Z,97840.59
2022-09-29T03:59:21.040Z,97853.53
2022-09-29T04:02:08.242Z,97851.78
2022-09-29T04:04:56.951Z,97853.53
2022-09-29T04:07:43.937Z,97853.53
2022-09-29T04:10:31.091Z,97851.91
2022-09-29T04:13:20.245Z,97846.00
2022-09-29T04:16:08.272Z,97841.97
2022-09-29T04:18:55.712Z,97845.63
2022-09-29T04:21:44.472Z,97839.97
2022-09-29T04:24:31.900Z,97842.53
2022-09-29T04:27:19.212Z,97844.47
2022-09-29T04:30:08.285Z,97842.84
2022-09-29T04:32:55.698Z,97855.94
2022-09-29T04:35:42.980Z,97851.75
2022-09-29T04:38:31.573Z,97849.34
2022-09-29T04:41:19.429Z,97853.66
2022-09-29T04:44:07.341Z,97851.91
2022-09-29T04:46:54.607Z,97852.84
2022-09-29T04:49:41.872Z,97856.22
2022-09-29T04:52:28.931Z,97849.34
2022-09-29T04:55:17.974Z,97852.06
2022-09-29T04:58:05.992Z,97846.53
2022-09-29T05:00:53.284Z,97849.69
2022-09-29T05:03:40.813Z,97847.53
2022-09-29T05:06:27.895Z,97846.97
2022-09-29T05:09:15.233Z,97854.16
2022-09-29T05:12:04.250Z,97851.44
2022-09-29T05:14:51.463Z,97857.22
2022-09-29T05:17:38.663Z,97863.03
2022-09-29T05:20:08.819Z,97857.47
2022-09-29T05:22:37.683Z,97864.22
2022-09-29T05:25:08.948Z,97864.06
2022-09-29T05:27:39.753Z,97872.44
2022-09-29T05:30:09.937Z,97868.78
2022-09-29T05:32:38.828Z,97878.19
2022-09-29T05:35:08.757Z,97878.19
2022-09-29T05:37:37.501Z,97881.56
2022-09-29T05:40:08.521Z,97889.25
2022-09-29T05:42:38.647Z,97887.34
2022-09-29T05:45:10.241Z,97892.31
2022-09-29T05:47:43.271Z,97894.88
2022-09-29T05:50:15.964Z,97895.69
2022-09-29T05:52:49.280Z,97897.44
2022-09-29T05:55:18.376Z,97896.47
2022-09-29T05:57:50.825Z,97887.19
2022-09-29T06:00:19.594Z,97901.22
2022-09-29T06:02:48.210Z,97905.81
2022-09-29T06:05:16.976Z,97901.66
2022-09-29T06:07:45.754Z,97897.31
2022-09-29T06:10:14.459Z,97900.72
2022-09-29T06:12:43.501Z,97902.44
2022-09-29T06:15:14.641Z,97902.75
2022-09-29T06:17:43.299Z,97895.06
2022-09-29T06:20:12.391Z,97895.06
2022-09-29T06:22:40.991Z,97897.63
2022-09-29T06:25:10.276Z,97901.13
2022-09-29T06:27:38.843Z,97889.41
2022-09-29T06:30:09.333Z,97896.28
2022-09-29T06:32:39.370Z,97896.16
2022-09-29T06:35:26.636Z,97899.38
2022-09-29T06:37:56.525Z,97906.22
2022-09-29T06:40:27.362Z,97921.44
2022-09-29T06:42:56.071Z,97909.47
2022-09-29T06:45:24.678Z,97911.88
2022-09-29T06:48:00.358Z,97913.50
2022-09-29T06:50:28.922Z,97911.75
2022-09-29T06:53:04.062Z,97918.47
2022-09-29T06:55:33.148Z,97912.53
2022-09-29T06:58:04.336Z,97922.91
2022-09-29T07:00:35.177Z,97913.66
2022-09-29T07:03:05.406Z,97912.69
2022-09-29T07:05:35.873Z,97917.53
2022-09-29T07:08:04.588Z,97911.31
2022-09-29T07:10:33.247Z,97915.47
2022-09-29T07:13:01.870Z,97911.84
2022-09-29T07:15:32.539Z,97906.56
2022-09-29T07:18:02.134Z,97917.34
2022-09-29T07:20:33.242Z,97916.25
2022-09-29T07:23:01.840Z,97924.56
2022-09-29T07:28:19.103Z,97919.19
2022-09-29T07:30:47.775Z,97918.06
2022-09-29T07:33:17.708Z,97912.03
2022-09-29T07:35:48.517Z,97924.56
2022-09-29T07:38:17.078Z,97925.19
2022-09-29T07:40:45.739Z,97924.25
2022-09-29T07:43:14.375Z,97925.88
2022-09-29T07:45:49.523Z,97928.94
2022-09-29T07:48:19.306Z,97927.06
2022-09-29T07:50:49.340Z,97932.03
2022-09-29T07:53:17.947Z,97926.75
2022-09-29T07:55:46.706Z,97927.28
2022-09-29T07:58:15.265Z,97926.19
2022-09-29T08:00:43.911Z,97928.47
2022-09-29T08:03:13.770Z,97923.34
2022-09-29T08:05:43.002Z,97920.63
2022-09-29T08:08:12.929Z,97931.53
2022-09-29T08:10:51.843Z,97929.50
2022-09-29T08:13:21.967Z,97934.19
2022-09-29T08:15:50.644Z,97937.09
2022-09-29T08:18:19.200Z,97934.78
2022-09-29T08:20:50.140Z,97937.41
2022-09-29T08:23:20.134Z,97934.91
2022-09-29T08:25:59.038Z,97939.31
2022-09-29T08:28:32.496Z,97932.53
2022-09-29T08:31:04.633Z,97943.00
2022-09-29T08:33:34.116Z,97945.63
2022-09-29T08:36:05.907Z,97945.72
2022-09-29T08:38:42.660Z,97955.22
2022-09-29T08:41:27.748Z,97950.31
2022-09-29T08:44:01.429Z,97954.84
2022-09-29T08:46:36.567Z,97959.34
2022-09-29T08:49:16.050Z,97951.72
2022-09-29T08:51:51.921Z,97961.38
2022-09-29T08:54:38.583Z,97954.84
2022-09-29T08:57:11.187Z,97966.25
2022-09-29T08:59:39.803Z,97968.41
2022-09-29T09:02:56.658Z,97963.91
2022-09-29T09:05:44.201Z,97969.69
2022-09-29T09:08:23.462Z,97972.59
2022-09-29T09:11:06.091Z,97975.66
2022-09-29T09:13:55.676Z,97973.78
2022-09-29T09:16:36.997Z,97979.41
2022-09-29T09:19:46.563Z,97974.00
2022-09-29T09:22:24.558Z,97981.22
2022-09-29T09:24:59.685Z,97979.97
2022-09-29T09:27:36.741Z,97978.38
2022-09-29T09:30:13.495Z,97976.00
2022-09-29T09:32:50.525Z,97977.00
2022-09-29T09:35:31.433Z,97977.50
2022-09-29T09:38:04.955Z,97974.34
2022-09-29T09:40:42.230Z,97970.84
2022-09-29T09:43:20.677Z,97982.88
2022-09-29T09:45:55.761Z,97979.72
2022-09-29T09:48:32.457Z,97977.31
2022-09-29T09:51:03.601Z,97978.31
2022-09-29T09:53:38.942Z,97977.38
2022-09-29T09:56:19.161Z,97979.31
2022-09-29T09:59:25.799Z,97986.56
2022-09-29T10:01:54.984Z,97985.47
2022-09-29T10:04:26.104Z,97988.81
2022-09-29T10:06:54.940Z,97987.88
2022-09-29T10:09:23.850Z,97980.00
2022-09-29T10:11:52.786Z,97985.13
2022-09-29T10:14:28.277Z,97979.03
2022-09-29T10:17:02.976Z,97981.59
2022-09-29T10:20:00.629Z,97986.09
2022-09-29T10:22:31.035Z,97991.22
2022-09-29T10:25:16.793Z,97991.06
2022-09-29T10:27:49.560Z,97996.22
2022-09-29T10:30:23.488Z,97992.84
2022-09-29T10:32:59.811Z,97997.19
2022-09-29T10:35:33.851Z,97992.19
2022-09-29T10:38:06.368Z,97994.75
2022-09-29T10:40:36.797Z,98000.06
2022-09-29T10:43:26.913Z,97991.56
2022-09-29T10:45:58.808Z,97989.94
2022-09-29T10:48:28.547Z,97991.72
2022-09-29T10:53:38.151Z,97998.59
2022-09-29T10:56:17.370Z,97986.88
2022-09-29T10:59:01.414Z,97995.56
2022-09-29T11:01:45.383Z,97997.47
2022-09-29T11:04:21.625Z,98006.97
2022-09-29T11:06:51.260Z,97995.03
2022-09-29T11:09:32.292Z,97999.38
2022-09-29T11:12:04.119Z,97990.06
2022-09-29T11:14:44.019Z,97991.97
2022-09-29T11:17:25.933Z,97992.94
2022-09-29T11:19:56.506Z,98000.81
2022-09-29T11:23:10.055Z,97988.41
2022-09-29T11:26:14.868Z,97996.28
2022-09-29T11:29:03.309Z,97995.63
2022-09-29T11:31:43.930Z,98005.78
2022-09-29T11:34:48.671Z,97998.34
2022-09-29T11:37:37.548Z,98001.75
2022-09-29T11:40:15.597Z,97999.34
2022-09-29T11:43:03.798Z,98005.44
2022-09-29T11:45:42.091Z,98004.59
2022-09-29T11:48:40.274Z,98011.53
2022-09-29T11:51:24.119Z,98005.59
2022-09-29T11:54:13.283Z,98009.09
2022-09-29T11:56:51.676Z,98008.31
2022-09-29T11:59:59.097Z,98008.59
2022-09-29T12:03:01.272Z,98007.81
2022-09-29T12:05:43.100Z,98006.03
2022-09-29T12:08:27.678Z,98006.88
2022-09-29T12:11:23.795Z,98005.09
2022-09-29T12:14:02.129Z,98004.28
2022-09-29T12:16:34.573Z,97997.38
2022-09-29T12:19:12.029Z,98002.34
2022-09-29T12:21:46.933Z,97999.00
2022-09-29T12:24:20.686Z,97996.44
2022-09-29T12:26:51.936Z,97992.06
2022-09-29T12:29:34.249Z,97986.16
2022-09-29T12:32:18.407Z,97991.28
2022-09-29T12:34:52.730Z,97995.59
2022-09-29T12:37:28.323Z,97996.44
2022-09-29T12:40:09.390Z,97998.16
2022-09-29T12:42:57.259Z,97997.38
2022-09-29T12:45:35.385Z,97996.59
2022-09-29T12:48:20.208Z,98006.03
2022-09-29T12:50:55.777Z,97993.34
2022-09-29T12:53:32.701Z,97995.91
2022-09-29T12:56:07.373Z,97990.78
2022-09-29T12:58:44.485Z,97996.88
2022-09-29T13:01:24.110Z,97995.13
2022-09-29T13:04:33.427Z,97997.84
2022-09-29T13:07:46.085Z,97997.97
2022-09-29T13:10:43.950Z,97999.75
2022-09-29T13:14:04.542Z,98005.84
2022-09-29T13:16:59.458Z,97998.47
2022-09-29T13:20:11.813Z,98008.72
2022-09-29T13:23:14.067Z,98012.25
2022-09-29T13:25:54.550Z,98012.25
2022-09-29T13:28:33.471Z,98010.50
2022-09-29T13:31:05.611Z,98017.41
2022-09-29T13:33:35.446Z,98013.88
2022-09-29T13:36:04.566Z,98021.59
2022-09-29T13:38:37.159Z,98028.50
2022-09-29T13:41:18.171Z,98023.34
2022-09-29T13:46:43.245Z,98033.78
2022-09-29T13:49:25.511Z,98032.34
2022-09-29T13:51:56.325Z,98032.50
2022-09-29T13:54:40.479Z,98032.63
2022-09-29T13:57:27.005Z,98037.91
2022-09-29T14:00:27.119Z,98040.78
2022-09-29T14:03:26.883Z,98043.53
2022-09-29T14:06:36.177Z,98045.13
2022-09-29T14:09:04.419Z,98046.72
2022-09-29T14:11:37.667Z,98044.31
2022-09-29T14:14:09.835Z,98048.50
2022-09-29T14:16:57.017Z,98045.94
2022-09-29T14:19:43.504Z,98045.94
2022-09-29T14:22:53.894Z,98048.66
2022-09-29T14:25:36.548Z,98052.19
2022-09-29T14:28:09.210Z,98054.59
2022-09-29T14:30:50.779Z,98054.59
2022-09-29T14:33:25.233Z,98055.41
2022-09-29T14:36:08.027Z,98061.34
2022-09-29T14:38:40.695Z,98065.69
2022-09-29T14:41:34.183Z,98066.47
2022-09-29T14:44:08.951Z,98066.47
2022-09-29T14:47:23.811Z,98070.00
2022-09-29T14:50:27.832Z,98073.50
2022-09-29T14:53:19.851Z,98065.97
2022-09-29T14:56:03.510Z,98072.72
2022-09-29T14:58:59.859Z,98078.66
2022-09-29T15:01:31.001Z,98088.13
2022-09-29T15:04:07.715Z,98087.34
2022-09-29T15:06:36.675Z,98078.66
2022-09-29T15:09:21.519Z,98083.78
2022-09-29T15:11:53.001Z,98081.38
2022-09-29T15:14:26.929Z,98074.50
2022-09-29T15:17:09.782Z,98083.00
2022-09-29T15:19:55.938Z,98085.72
2022-09-29T15:22:57.193Z,98096.94
2022-09-29T15:25:31.222Z,98094.38
2022-09-29T15:28:03.401Z,98094.38
2022-09-29T15:30:33.557Z,98095.19
2022-09-29T15:33:21.831Z,98094.38
2022-09-29T15:35:55.923Z,98091.81
2022-09-29T15:38:38.409Z,98094.38
2022-09-29T15:41:20.038Z,98091.97
2022-09-29T15:43:57.183Z,98097.88
2022-09-29T15:46:36.361Z,98100.47
2022-09-29T15:49:15.095Z,98096.31
2022-09-29T15:51:47.282Z,98104.00
2022-09-29T15:54:16.590Z,98101.44
2022-09-29T15:57:06.313Z,98108.31
2022-09-29T15:59:51.482Z,98107.53
2022-09-29T16:02:30.445Z,98112.81
2022-09-29T16:05:02.260Z,98112.81
2022-09-29T16:07:34.622Z,98113.75
2022-09-29T16:10:09.638Z,98119.69
2022-09-29T16:12:49.498Z,98126.59
2022-09-29T16:15:27.264Z,98128.38
2022-09-29T16:17:56.094Z,98141.22
2022-09-29T16:20:30.550Z,98141.22
2022-09-29T16:23:07.290Z,98142.00
2022-09-29T16:25:36.034Z,98149.88
2022-09-29T16:28:07.496Z,98152.28
2022-09-29T16:30:39.786Z,98153.22
2022-09-29T16:33:17.177Z,98159.19
2022-09-29T16:36:04.204Z,98157.56
2022-09-29T16:38:36.607Z,98157.56
2022-09-29T16:41:21.660Z,98155.00
2022-09-29T16:43:51.736Z,98168.63
2022-09-29T16:46:23.672Z,98163.66
2022-09-29T16:48:52.400Z,98166.22
2022-09-29T16:51:39.513Z,98179.06
2022-09-29T16:54:16.833Z,98170.72
2022-09-29T16:56:45.939Z,98174.22
2022-09-29T16:59:18.822Z,98184.50
2022-09-29T17:01:48.064Z,98189.63
2022-09-29T17:04:17.269Z,98188.81
2022-09-29T17:06:49.322Z,98192.34
2022-09-29T17:09:28.459Z,98194.94
2022-09-29T17:11:57.172Z,98194.09
2022-09-29T17:14:30.280Z,98201.00
2022-09-29T17:16:59.077Z,98201.16
2022-09-29T17:19:27.660Z,98197.13
2022-09-29T17:21:57.338Z,98199.16
2022-09-29T17:24:25.959Z,98201.09
2022-09-29T17:27:12.071Z,98204.75
2022-09-29T17:29:42.076Z,98206.00
2022-09-29T17:32:14.365Z,98213.88
2022-09-29T17:34:43.016Z,98216.59
2022-09-29T17:37:11.552Z,98220.25
2022-09-29T17:39:40.291Z,98216.34
2022-09-29T17:42:09.030Z,98224.31
2022-09-29T17:44:39.262Z,98241.63
2022-09-29T17:47:26.764Z,98235.97
2022-09-29T17:49:56.716Z,98234.78
2022-09-29T17:52:25.719Z,98238.28
2022-09-29T17:54:54.309Z,98237.34
2022-09-29T17:57:28.962Z,98243.16
2022-09-29T17:59:58.210Z,98249.09
2022-09-29T18:02:28.290Z,98251.50
2022-09-29T18:04:57.030Z,98255.00
2022-09-29T18:07:25.623Z,98250.03
2022-09-29T18:09:54.239Z,98246.00
2022-09-29T18:12:22.850Z,98250.47
2022-09-29T18:14:51.693Z,98238.59
2022-09-29T18:17:20.465Z,98248.19
2022-09-29T18:19:50.454Z,98244.66
2022-09-29T18:22:19.025Z,98247.09
2022-09-29T18:24:47.654Z,98252.22
2022-09-29T18:27:16.220Z,98260.75
2022-09-29T18:29:44.821Z,98254.63
2022-09-29T18:32:18.585Z,98269.22
2022-09-29T18:34:47.202Z,98270.84
2022-09-29T18:37:17.529Z,98276.78
2022-09-29T18:39:46.126Z,98277.47
2022-09-29T18:42:14.708Z,98274.22
2022-09-29T18:44:43.375Z,98282.59
2022-09-29T18:47:12.938Z,98282.84
2022-09-29T18:49:41.600Z,98284.78
2022-09-29T18:52:10.250Z,98278.03
2022-09-29T18:54:40.276Z,98286.66
2022-09-29T18:57:13.121Z,98281.03
2022-09-29T18:59:42.299Z,98282.28
2022-09-29T19:02:14.615Z,98282.53
2022-09-29T19:04:43.345Z,98281.88
2022-09-29T19:07:14.349Z,98281.22
2022-09-29T19:09:44.817Z,98286.47
2022-09-29T19:12:13.991Z,98301.72
2022-09-29T19:14:43.225Z,98310.25
2022-09-29T19:17:12.171Z,98316.31
2022-09-29T19:19:40.715Z,98322.41
2022-09-29T19:22:12.641Z,98319.97
2022-09-29T19:24:41.227Z,98319.97
2022-09-29T19:27:11.214Z,98317.25
2022-09-29T19:29:39.835Z,98323.22
2022-09-29T19:32:08.677Z,98324.16
2022-09-29T19:34:37.335Z,98326.72
2022-09-29T19:37:06.708Z,98329.28
2022-09-29T19:39:35.397Z,98335.22
2022-09-29T19:42:04.009Z,98337.66
2022-09-29T19:44:39.336Z,98336.06
2022-09-29T19:47:08.493Z,98343.59
2022-09-29T19:49:37.884Z,98342.66
2022-09-29T19:52:05.952Z,98347.78
2022-09-29T19:54:38.807Z,98358.06
2022-09-29T19:57:11.184Z,98363.44
2022-09-29T19:59:44.014Z,98363.44
2022-09-29T20:02:15.339Z,98367.78
2022-09-29T20:05:02.615Z,98367.25
2022-09-29T20:07:49.955Z,98363.34
2022-09-29T20:10:37.319Z,98367.00
2022-09-29T20:13:24.460Z,98368.91
2022-09-29T20:16:12.965Z,98372.41
2022-09-29T20:19:00.280Z,98377.53
2022-09-29T20:21:50.547Z,98378.47
2022-09-29T20:24:37.753Z,98380.25
2022-09-29T20:27:25.011Z,98377.69
2022-09-29T20:30:13.256Z,98389.72
2022-09-29T20:33:01.970Z,98386.31
2022-09-29T20:35:49.411Z,98388.09
2022-09-29T20:38:43.393Z,98389.81
2022-09-29T20:41:30.547Z,98395.78
2022-09-29T20:44:20.013Z,98387.25
2022-09-29T20:47:07.760Z,98391.72
2022-09-29T20:49:56.688Z,98388.47
2022-09-29T20:52:44.472Z,98397.94
2022-09-29T20:55:31.633Z,98401.31
2022-09-29T20:58:18.822Z,98402.13
2022-09-29T21:01:12.735Z,98406.44
2022-09-29T21:04:04.077Z,98405.50
2022-09-29T21:06:53.247Z,98415.88
2022-09-29T21:09:40.535Z,98415.09
2022-09-29T21:12:27.505Z,98421.03
2022-09-29T21:15:14.732Z,98416.03
2022-09-29T21:18:02.139Z,98419.41
2022-09-29T21:20:49.856Z,98418.44
2022-09-29T21:23:40.841Z,98428.72
2022-09-29T21:26:27.886Z,98426.28
2022-09-29T21:29:18.410Z,98436.53
2022-09-29T21:32:05.948Z,98434.13
2022-09-29T21:34:53.023Z,98446.25
2022-09-29T21:37:39.993Z,98442.75
2022-09-29T21:40:28.507Z,98445.47
2022-09-29T21:43:15.525Z,98442.91
2022-09-29T21:46:04.545Z,98443.19
2022-09-29T21:48:53.170Z,98441.56
2022-09-29T21:51:43.051Z,98456.00
2022-09-29T21:54:31.286Z,98451.94
2022-09-29T21:57:20.007Z,98456.25
2022-09-29T22:00:08.876Z,98457.06
2022-09-29T22:02:55.803Z,98456.94
2022-09-29T22:05:43.185Z,98454.38
2022-09-29T22:08:30.624Z,98459.50
2022-09-29T22:11:21.259Z,98462.06
2022-09-29T22:14:12.640Z,98469.91
2022-09-29T22:16:59.630Z,98471.63
2022-09-29T22:19:46.634Z,98476.75
2022-09-29T22:22:33.789Z,98474.47
2022-09-29T22:25:20.839Z,98473.69
2022-09-29T22:28:07.938Z,98472.06
2022-09-29T22:30:57.406Z,98473.13
2022-09-29T22:33:46.328Z,98471.66
2022-09-29T22:36:35.720Z,98471.78
2022-09-29T22:39:23.031Z,98481.25
2022-09-29T22:42:10.133Z,98478.00
2022-09-29T22:44:57.419Z,98483.13
2022-09-29T22:47:45.861Z,98475.56
2022-09-29T22:50:33.613Z,98480.84
2022-09-29T22:53:20.878Z,98473.94
2022-09-29T22:56:13.542Z,98482.47
2022-09-29T22:59:02.679Z,98479.22
2022-09-29T23:01:50.280Z,98479.34
2022-09-29T23:04:38.779Z,98478.78
2022-09-29T23:07:26.151Z,98476.38
2022-09-29T23:10:13.271Z,98484.88
2022-09-29T23:13:00.289Z,98482.31
2022-09-29T23:15:47.511Z,98489.03
2022-09-29T23:18:35.340Z,98489.03
2022-09-29T23:21:25.308Z,98492.44
2022-09-29T23:24:12.848Z,98494.03
2022-09-29T23:27:00.592Z,98488.91
2022-09-29T23:29:47.981Z,98498.22
2022-09-29T23:32:34.914Z,98498.22
2022-09-29T23:35:22.189Z,98497.44
2022-09-29T23:38:28.712Z,98495.81
2022-09-29T23:41:15.790Z,98500.13
2022-09-29T23:44:05.591Z,98505.25
2022-09-29T23:46:54.461Z,98496.88
2022-09-29T23:49:41.603Z,98503.63
2022-09-29T23:52:28.777Z,98502.84
2022-09-29T23:55:17.522Z,98506.19
2022-09-29T23:58:04.820Z,98513.88
